Time;durP1;ratioP1;P1;durP2;ratioP2;P2;SDS_P1;SDS_P2;PMS_P1;PMS_P2;Temp;Humidity;BMP_temperature;BMP_pressure;BME280_temperature;BME280_humidity;BME280_pressure;Samples;Min_cycle;Max_cycle;Signal;HPM_P1;HPM_P2
2021/09/14 00:00:31;;;;;;;8.57;7.60;;;;;;;;;;6380828;22;20352;-79
2021/09/14 00:02:57;;;;;;;8.53;7.00;;;;;;;;;;6380683;22;20371;-79
2021/09/14 00:05:23;;;;;;;8.10;7.30;;;;;;;;;;6380890;22;20363;-78
2021/09/14 00:07:49;;;;;;;7.70;7.00;;;;;;;;;;6380792;22;20399;-79
2021/09/14 00:10:15;;;;;;;7.73;7.03;;;;;;;;;;6380648;22;20419;-79
2021/09/14 00:12:41;;;;;;;7.33;6.73;;;;;;;;;;6370367;22;20375;-79
2021/09/14 00:15:09;;;;;;;7.80;7.00;;;;;;;;;;6380672;22;20382;-79
2021/09/14 00:17:35;;;;;;;8.67;7.03;;;;;;;;;;6380386;22;20814;-78
2021/09/14 00:20:01;;;;;;;8.17;7.43;;;;;;;;;;6379997;22;20375;-75
2021/09/14 00:25:31;;;;;;;8.57;6.57;;;;;;;;;;6379934;22;20420;-78
2021/09/14 00:27:57;;;;;;;8.63;7.23;;;;;;;;;;6370004;22;20794;-77
2021/09/14 00:30:23;;;;;;;7.43;6.63;;;;;;;;;;6341369;22;20920;-79
2021/09/14 00:32:49;;;;;;;7.17;6.47;;;;;;;;;;6380161;22;20359;-78
2021/09/14 00:35:15;;;;;;;7.07;6.33;;;;;;;;;;6341763;22;20383;-79
2021/09/14 00:40:45;;;;;;;5.13;4.67;;;;;;;;;;6380380;22;20377;-79
2021/09/14 00:43:17;;;;;;;7.00;6.00;;;;;;;;;;6380445;22;20908;-78
2021/09/14 00:45:43;;;;;;;6.20;5.13;;;;;;;;;;6370135;22;20382;-77
2021/09/14 00:48:09;;;;;;;6.57;5.40;;;;;;;;;;6380366;22;20829;-78
2021/09/14 00:50:35;;;;;;;5.07;4.57;;;;;;;;;;6380342;22;20465;-78
2021/09/14 00:56:05;;;;;;;5.97;5.37;;;;;;;;;;6380553;22;20432;-80
2021/09/14 00:58:31;;;;;;;6.80;5.23;;;;;;;;;;6380483;22;20371;-79
2021/09/14 01:00:57;;;;;;;6.40;5.80;;;;;;;;;;6380181;22;20872;-79
2021/09/14 01:03:23;;;;;;;6.40;5.70;;;;;;;;;;6380295;22;20367;-78
2021/09/14 01:11:39;;;;;;;6.50;5.50;;;;;;;;;;6381986;22;20849;-78
2021/09/14 01:14:07;;;;;;;5.83;5.33;;;;;;;;;;6371956;22;20690;-79
2021/09/14 01:16:33;;;;;;;6.20;5.63;;;;;;;;;;6381938;22;20384;-78
2021/09/14 01:19:00;;;;;;;6.33;5.83;;;;;;;;;;6382028;22;20408;-78
2021/09/14 01:21:26;;;;;;;6.33;5.80;;;;;;;;;;6370501;22;20399;-77
2021/09/14 01:23:52;;;;;;;7.10;5.87;;;;;;;;;;6371416;22;20455;-79
2021/09/14 01:26:18;;;;;;;5.87;5.40;;;;;;;;;;6353734;22;20453;-78
2021/09/14 01:28:44;;;;;;;6.63;6.10;;;;;;;;;;6382025;22;20372;-78
2021/09/14 01:31:10;;;;;;;7.70;5.63;;;;;;;;;;6381722;22;20524;-78
2021/09/14 01:33:36;;;;;;;6.43;5.83;;;;;;;;;;6371864;22;20397;-79
2021/09/14 01:36:03;;;;;;;6.10;5.50;;;;;;;;;;6381970;22;20896;-79
2021/09/14 01:41:32;;;;;;;7.70;5.93;;;;;;;;;;6381983;22;20385;-79
2021/09/14 01:43:58;;;;;;;6.40;5.80;;;;;;;;;;6381937;22;20809;-78
2021/09/14 01:46:24;;;;;;;6.17;5.57;;;;;;;;;;6371460;22;20389;-78
2021/09/14 01:48:50;;;;;;;6.53;5.77;;;;;;;;;;6381826;22;20451;-79
2021/09/14 01:51:16;;;;;;;6.00;5.40;;;;;;;;;;6382041;22;20418;-79
2021/09/14 01:53:42;;;;;;;7.00;6.33;;;;;;;;;;6370756;22;20375;-78
2021/09/14 01:56:08;;;;;;;5.70;5.20;;;;;;;;;;6371310;22;20391;-75
2021/09/14 01:58:34;;;;;;;6.80;6.00;;;;;;;;;;6382145;22;20363;-79
2021/09/14 02:04:03;;;;;;;6.47;5.90;;;;;;;;;;6347918;22;20379;-78
2021/09/14 02:06:47;;;;;;;6.23;5.67;;;;;;;;;;6381683;22;20701;-79
2021/09/14 03:01:03;;;;;;;6.17;5.67;;;;;;;;;;6381094;22;20428;-78
2021/09/14 03:03:29;;;;;;;7.00;5.60;;;;;;;;;;6380939;22;20370;-80
2021/09/14 03:05:55;;;;;;;8.60;6.33;;;;;;;;;;6380982;22;20367;-80
2021/09/14 03:11:24;;;;;;;7.47;6.77;;;;;;;;;;6380924;22;20421;-79
2021/09/14 03:13:50;;;;;;;6.77;6.27;;;;;;;;;;6381498;22;20367;-78
2021/09/14 03:16:16;;;;;;;7.37;6.67;;;;;;;;;;6370605;22;20379;-79
2021/09/14 03:18:42;;;;;;;7.23;6.53;;;;;;;;;;6370761;22;20394;-79
2021/09/14 03:21:09;;;;;;;8.47;7.77;;;;;;;;;;6380938;22;20682;-79
2021/09/14 03:26:39;;;;;;;7.70;7.00;;;;;;;;;;6379721;22;20720;-78
2021/09/14 03:29:05;;;;;;;6.73;5.83;;;;;;;;;;6380495;22;20402;-81
2021/09/14 03:31:31;;;;;;;6.97;6.37;;;;;;;;;;6380838;22;20508;-79
2021/09/14 03:33:57;;;;;;;7.20;6.30;;;;;;;;;;6380986;22;20367;-79
2021/09/14 03:36:23;;;;;;;6.67;6.17;;;;;;;;;;6380691;22;20455;-78
2021/09/14 03:41:52;;;;;;;10.03;6.40;;;;;;;;;;6380903;22;20374;-79
2021/09/14 03:44:18;;;;;;;6.70;6.10;;;;;;;;;;6370129;22;20459;-80
2021/09/14 03:46:44;;;;;;;14.20;6.60;;;;;;;;;;6380638;22;20402;-80
2021/09/14 03:49:10;;;;;;;6.70;6.10;;;;;;;;;;6380772;22;20377;-79
2021/09/14 03:51:36;;;;;;;7.10;6.27;;;;;;;;;;6380872;22;20829;-79
2021/09/14 03:57:05;;;;;;;8.00;7.20;;;;;;;;;;6380820;22;20487;-78
2021/09/14 03:59:34;;;;;;;6.97;6.40;;;;;;;;;;6380674;22;20706;-79
2021/09/14 04:02:01;;;;;;;7.03;6.43;;;;;;;;;;6369761;22;20368;-79
2021/09/14 04:12:37;;;;;;;8.30;7.43;;;;;;;;;;6380661;22;20378;-77
2021/09/14 04:15:03;;;;;;;8.73;7.97;;;;;;;;;;6380577;22;20367;-77
2021/09/14 04:17:29;;;;;;;8.23;7.20;;;;;;;;;;6370286;22;20689;-79
2021/09/14 04:19:55;;;;;;;8.90;8.10;;;;;;;;;;6380803;22;20442;-79
2021/09/14 04:22:21;;;;;;;7.90;7.10;;;;;;;;;;6380636;22;20686;-79
2021/09/14 04:27:50;;;;;;;8.60;7.70;;;;;;;;;;6380558;22;20449;-78
2021/09/14 04:30:16;;;;;;;7.93;7.23;;;;;;;;;;6380457;22;20427;-78
2021/09/14 04:32:42;;;;;;;9.17;8.27;;;;;;;;;;6380611;22;20482;-78
2021/09/14 04:35:08;;;;;;;9.67;7.53;;;;;;;;;;6380553;22;20701;-78
2021/09/14 04:37:34;;;;;;;7.13;6.50;;;;;;;;;;6380760;22;20412;-78
2021/09/14 04:43:04;;;;;;;8.93;8.10;;;;;;;;;;6382795;22;20369;-78
2021/09/14 04:45:30;;;;;;;8.30;7.47;;;;;;;;;;6382680;22;20355;-80
2021/09/14 04:47:56;;;;;;;8.03;7.23;;;;;;;;;;6382709;22;20700;-79
2021/09/14 04:50:22;;;;;;;8.27;7.37;;;;;;;;;;6343909;22;20441;-77
2021/09/14 04:52:48;;;;;;;7.13;6.53;;;;;;;;;;6382579;22;20393;-78
2021/09/14 04:55:14;;;;;;;8.00;7.30;;;;;;;;;;6382415;22;20674;-78
2021/09/14 04:57:40;;;;;;;7.97;7.37;;;;;;;;;;6382535;22;20364;-79
2021/09/14 05:00:06;;;;;;;9.23;7.80;;;;;;;;;;6344051;22;20397;-76
2021/09/14 05:02:32;;;;;;;10.30;9.30;;;;;;;;;;6382414;22;20371;-78
2021/09/14 05:04:58;;;;;;;8.00;6.80;;;;;;;;;;6382481;22;20756;-79
2021/09/14 05:07:24;;;;;;;8.83;7.93;;;;;;;;;;6372395;22;20747;-79
2021/09/14 05:12:54;;;;;;;7.30;6.70;;;;;;;;;;6382363;22;20692;-79
2021/09/14 05:15:20;;;;;;;8.00;7.30;;;;;;;;;;6382123;22;20376;-76
2021/09/14 05:17:46;;;;;;;8.87;7.97;;;;;;;;;;6371922;22;20371;-78
2021/09/14 05:20:14;;;;;;;9.83;8.97;;;;;;;;;;6382305;22;20853;-74
2021/09/14 05:22:41;;;;;;;8.00;7.10;;;;;;;;;;6372805;22;20375;-77
2021/09/14 05:28:13;;;;;;;8.57;7.87;;;;;;;;;;6382041;22;20437;-79
2021/09/14 05:30:40;;;;;;;8.03;7.33;;;;;;;;;;6373816;22;20435;-79
2021/09/14 05:33:06;;;;;;;8.03;7.30;;;;;;;;;;6382696;22;20360;-78
2021/09/14 05:35:52;;;;;;;9.13;8.23;;;;;;;;;;6382424;22;20455;-79
2021/09/14 05:38:19;;;;;;;8.87;8.07;;;;;;;;;;6371185;22;20379;-79
2021/09/14 05:40:46;;;;;;;8.80;7.90;;;;;;;;;;6371561;22;20794;-78
2021/09/14 05:43:12;;;;;;;9.87;8.97;;;;;;;;;;6382009;22;20447;-79
2021/09/14 05:45:38;;;;;;;8.43;7.33;;;;;;;;;;6381833;22;20367;-77
2021/09/14 05:48:04;;;;;;;7.87;7.03;;;;;;;;;;6371130;22;20379;-76
2021/09/14 05:50:30;;;;;;;10.40;8.37;;;;;;;;;;6381253;22;20427;-79
2021/09/14 05:52:56;;;;;;;9.37;8.07;;;;;;;;;;6382035;22;20371;-77
2021/09/14 05:58:26;;;;;;;9.27;7.50;;;;;;;;;;6381789;22;20378;-78
2021/09/14 06:00:52;;;;;;;9.97;7.40;;;;;;;;;;6381696;22;20393;-80
2021/09/14 06:03:18;;;;;;;8.87;7.37;;;;;;;;;;6381725;22;20842;-81
2021/09/14 06:05:44;;;;;;;7.87;7.17;;;;;;;;;;6381701;22;20355;-79
2021/09/14 06:08:10;;;;;;;8.10;7.30;;;;;;;;;;6381739;22;20364;-76
2021/09/14 06:13:40;;;;;;;8.00;7.20;;;;;;;;;;6381720;22;20401;-81
2021/09/14 06:16:06;;;;;;;9.10;8.07;;;;;;;;;;6371420;22;20724;-79
2021/09/14 06:18:32;;;;;;;8.20;7.40;;;;;;;;;;6343231;22;20391;-81
2021/09/14 06:20:58;;;;;;;6.93;6.30;;;;;;;;;;6381419;22;20849;-81
2021/09/14 06:23:24;;;;;;;8.37;7.57;;;;;;;;;;6371320;22;20379;-80
2021/09/14 06:28:54;;;;;;;7.20;6.50;;;;;;;;;;6383283;22;20397;-80
2021/09/14 06:31:20;;;;;;;7.67;6.97;;;;;;;;;;6342111;22;20445;-80
2021/09/14 06:33:46;;;;;;;6.83;6.00;;;;;;;;;;6380422;22;20402;-80
2021/09/14 06:36:12;;;;;;;7.37;6.63;;;;;;;;;;6379971;22;20371;-81
2021/09/14 06:38:38;;;;;;;7.90;7.10;;;;;;;;;;6380530;22;20360;-79
2021/09/14 06:44:07;;;;;;;6.90;6.30;;;;;;;;;;6380659;22;20413;-79
2021/09/14 06:46:33;;;;;;;7.73;6.13;;;;;;;;;;6342309;22;20729;-80
2021/09/14 06:48:59;;;;;;;7.17;6.57;;;;;;;;;;6380929;22;20364;-79
2021/09/14 06:51:25;;;;;;;7.83;7.00;;;;;;;;;;6381033;22;20422;-80
2021/09/14 06:53:51;;;;;;;7.23;5.63;;;;;;;;;;6370487;22;20375;-79
2021/09/14 06:59:21;;;;;;;5.83;5.43;;;;;;;;;;6380939;22;20385;-77
2021/09/14 07:01:47;;;;;;;6.00;5.50;;;;;;;;;;6380599;22;20359;-77
2021/09/14 07:04:14;;;;;;;6.60;6.00;;;;;;;;;;6380748;22;20899;-80
2021/09/14 07:06:40;;;;;;;6.80;5.53;;;;;;;;;;6380659;22;20655;-79
2021/09/14 07:09:07;;;;;;;6.10;5.50;;;;;;;;;;6380818;22;20366;-80
2021/09/14 07:11:33;;;;;;;5.37;4.97;;;;;;;;;;6380639;22;20407;-79
2021/09/14 07:13:59;;;;;;;4.90;4.60;;;;;;;;;;6342330;22;20390;-78
2021/09/14 07:16:25;;;;;;;5.53;5.10;;;;;;;;;;6368272;22;20945;-77
2021/09/14 07:18:51;;;;;;;6.57;5.37;;;;;;;;;;6379511;22;20424;-78
2021/09/14 07:21:17;;;;;;;6.27;5.67;;;;;;;;;;6379615;22;20375;-78
2021/09/14 07:23:44;;;;;;;5.47;5.07;;;;;;;;;;6379486;22;20403;-79
2021/09/14 07:29:13;;;;;;;5.47;5.03;;;;;;;;;;6380996;22;20374;-76
2021/09/14 07:31:41;;;;;;;7.00;5.10;;;;;;;;;;6380728;22;20398;-78
2021/09/14 07:34:07;;;;;;;7.17;6.47;;;;;;;;;;6380970;22;20810;-77
2021/09/14 07:36:33;;;;;;;5.53;5.03;;;;;;;;;;6380640;22;20582;-77
2021/09/14 07:38:59;;;;;;;5.40;4.90;;;;;;;;;;6380826;22;20393;-79
2021/09/14 07:44:29;;;;;;;4.63;4.23;;;;;;;;;;6378329;22;20369;-79
2021/09/14 07:46:55;;;;;;;4.90;4.50;;;;;;;;;;6369272;22;20467;-81
2021/09/14 07:49:21;;;;;;;5.57;5.10;;;;;;;;;;6341367;22;20887;-78
2021/09/14 07:51:47;;;;;;;5.23;4.83;;;;;;;;;;6379618;22;20375;-78
2021/09/14 07:54:13;;;;;;;5.10;4.70;;;;;;;;;;6379767;22;20775;-79
2021/09/14 07:59:43;;;;;;;4.50;4.13;;;;;;;;;;6379815;22;20401;-80
2021/09/14 08:02:09;;;;;;;4.80;4.30;;;;;;;;;;6341197;22;20404;-79
2021/09/14 08:04:34;;;;;;;4.87;4.43;;;;;;;;;;6379770;22;20367;-78
2021/09/14 08:07:01;;;;;;;5.00;4.27;;;;;;;;;;6341114;22;20406;-79
2021/09/14 08:09:30;;;;;;;5.40;5.00;;;;;;;;;;6368673;22;20489;-78
2021/09/14 08:14:59;;;;;;;4.80;4.30;;;;;;;;;;6381033;22;20377;-77
2021/09/14 08:17:25;;;;;;;4.47;4.07;;;;;;;;;;6343724;22;20430;-76
2021/09/14 08:19:51;;;;;;;4.80;4.40;;;;;;;;;;6370930;22;20842;-78
2021/09/14 08:22:19;;;;;;;5.23;4.73;;;;;;;;;;6371220;22;20421;-79
2021/09/14 08:24:45;;;;;;;4.80;3.90;;;;;;;;;;6371521;22;20762;-77
2021/09/14 08:30:14;;;;;;;4.30;4.00;;;;;;;;;;6381240;22;20422;-78
2021/09/14 08:32:40;;;;;;;5.53;4.50;;;;;;;;;;6381575;22;20374;-76
2021/09/14 08:35:07;;;;;;;4.80;4.40;;;;;;;;;;6381577;22;20363;-79
2021/09/14 08:37:33;;;;;;;4.20;3.80;;;;;;;;;;6381966;22;20367;-77
2021/09/14 08:39:59;;;;;;;5.63;5.13;;;;;;;;;;6371361;22;20367;-79
2021/09/14 08:45:28;;;;;;;4.73;4.43;;;;;;;;;;6381917;22;20427;-77
2021/09/14 08:47:54;;;;;;;4.83;4.43;;;;;;;;;;6381864;22;20416;-76
2021/09/14 08:50:23;;;;;;;5.00;4.00;;;;;;;;;;6381665;22;20419;-78
2021/09/14 08:52:50;;;;;;;4.43;4.03;;;;;;;;;;6371618;22;20930;-78
2021/09/14 08:55:16;;;;;;;5.13;4.80;;;;;;;;;;6370978;22;20367;-78
2021/09/14 08:57:52;;;;;;;4.60;4.17;;;;;;;;;;6381438;22;20381;-79
2021/09/14 09:00:31;;;;;;;4.20;3.90;;;;;;;;;;6371009;22;20428;-78
2021/09/14 09:02:59;;;;;;;4.90;4.50;;;;;;;;;;6381326;22;20446;-77
2021/09/14 09:05:32;;;;;;;4.80;4.27;;;;;;;;;;6371128;22;20375;-77
2021/09/14 09:07:58;;;;;;;4.93;4.40;;;;;;;;;;6371269;22;20371;-77
2021/09/14 09:10:25;;;;;;;4.13;3.83;;;;;;;;;;6370630;22;20433;-77
2021/09/14 09:12:51;;;;;;;4.70;4.10;;;;;;;;;;6371251;22;20380;-77
2021/09/14 09:15:44;;;;;;;5.13;4.70;;;;;;;;;;6381358;22;20479;-77
2021/09/14 09:18:11;;;;;;;4.67;4.20;;;;;;;;;;6365535;22;20713;-77
2021/09/14 09:20:39;;;;;;;4.40;4.00;;;;;;;;;;6371180;22;20482;-77
2021/09/14 09:23:07;;;;;;;5.27;4.63;;;;;;;;;;6371095;22;20376;-76
2021/09/14 09:31:44;;;;;;;5.17;4.77;;;;;;;;;;6381385;22;20394;-78
2021/09/14 09:34:11;;;;;;;4.80;4.40;;;;;;;;;;6342996;22;20387;-77
2021/09/14 09:36:40;;;;;;;4.30;3.60;;;;;;;;;;6371316;22;20759;-78
2021/09/14 09:39:07;;;;;;;4.93;4.53;;;;;;;;;;6371021;22;20379;-77
2021/09/14 09:41:34;;;;;;;4.60;4.30;;;;;;;;;;6370653;22;20693;-78
2021/09/14 09:44:07;;;;;;;4.20;3.90;;;;;;;;;;6370972;22;20386;-77
2021/09/14 09:46:35;;;;;;;5.43;4.20;;;;;;;;;;6370620;22;20383;-77
2021/09/14 09:49:01;;;;;;;5.00;4.47;;;;;;;;;;6380891;22;20818;-75
2021/09/14 09:51:28;;;;;;;5.17;4.03;;;;;;;;;;6370332;22;20435;-77
2021/09/14 09:53:54;;;;;;;4.10;3.80;;;;;;;;;;6342923;22;20890;-78
2021/09/14 09:56:22;;;;;;;3.87;3.57;;;;;;;;;;6370517;22;20700;-78
2021/09/14 09:58:48;;;;;;;5.07;4.03;;;;;;;;;;6380745;22;20840;-77
2021/09/14 10:01:15;;;;;;;4.53;4.13;;;;;;;;;;6370431;22;20372;-78
2021/09/14 10:04:02;;;;;;;4.73;4.40;;;;;;;;;;6370211;22;20375;-77
2021/09/14 10:06:30;;;;;;;4.83;4.07;;;;;;;;;;6369927;22;20373;-77
2021/09/14 10:08:57;;;;;;;5.00;4.53;;;;;;;;;;6370181;22;20407;-79
2021/09/14 10:11:24;;;;;;;5.10;4.70;;;;;;;;;;6369870;22;20963;-78
2021/09/14 10:13:50;;;;;;;5.50;4.50;;;;;;;;;;6366705;22;20432;-78
2021/09/14 10:16:23;;;;;;;6.70;4.30;;;;;;;;;;6370129;22;20383;-79
2021/09/14 10:18:49;;;;;;;5.33;4.80;;;;;;;;;;6370329;22;20367;-81
2021/09/14 10:21:19;;;;;;;5.00;4.60;;;;;;;;;;6380588;22;20768;-78
2021/09/14 10:23:53;;;;;;;4.40;4.00;;;;;;;;;;6369484;22;20711;-78
2021/09/14 10:26:20;;;;;;;5.00;4.60;;;;;;;;;;6369335;22;20491;-78
2021/09/14 10:28:46;;;;;;;5.47;5.07;;;;;;;;;;6369807;22;20456;-78
2021/09/14 10:31:23;;;;;;;4.77;4.37;;;;;;;;;;6380064;22;20415;-77
2021/09/14 10:34:00;;;;;;;5.77;4.57;;;;;;;;;;6368900;22;20480;-77
2021/09/14 10:36:26;;;;;;;9.10;4.70;;;;;;;;;;6369083;22;20378;-77
2021/09/14 10:38:52;;;;;;;5.13;4.73;;;;;;;;;;6379679;22;20356;-77
2021/09/14 10:41:18;;;;;;;4.50;4.10;;;;;;;;;;6379551;22;20355;-77
2021/09/14 10:44:01;;;;;;;5.10;4.30;;;;;;;;;;6380051;22;20359;-77
2021/09/14 10:46:30;;;;;;;4.80;4.20;;;;;;;;;;6341860;22;20393;-78
2021/09/14 10:48:56;;;;;;;5.80;4.47;;;;;;;;;;6369866;22;20664;-76
2021/09/14 10:51:23;;;;;;;5.40;4.90;;;;;;;;;;6380357;22;20513;-77
2021/09/14 10:53:53;;;;;;;4.43;4.03;;;;;;;;;;6380341;22;20363;-78
2021/09/14 10:56:19;;;;;;;4.77;4.37;;;;;;;;;;6367207;22;20966;-77
2021/09/14 11:01:48;;;;;;;5.40;5.00;;;;;;;;;;6378538;22;20841;-77
2021/09/14 11:04:14;;;;;;;6.17;5.17;;;;;;;;;;6367732;22;20520;-76
2021/09/14 11:06:40;;;;;;;5.00;4.60;;;;;;;;;;6378114;22;20660;-77
2021/09/14 11:09:07;;;;;;;4.70;3.77;;;;;;;;;;6378513;22;20417;-77
2021/09/14 11:11:33;;;;;;;5.20;4.30;;;;;;;;;;6378499;22;20419;-78
2021/09/14 11:17:03;;;;;;;5.47;4.47;;;;;;;;;;6378592;22;20898;-75
2021/09/14 11:19:29;;;;;;;4.57;4.17;;;;;;;;;;6379675;22;20378;-75
2021/09/14 11:21:55;;;;;;;5.20;4.70;;;;;;;;;;6369586;22;20703;-77
2021/09/14 11:24:21;;;;;;;5.20;4.70;;;;;;;;;;6379503;22;20398;-76
2021/09/14 11:32:35;;;;;;;5.00;4.60;;;;;;;;;;6380810;22;20377;-76
2021/09/14 11:35:06;;;;;;;4.30;4.00;;;;;;;;;;6380726;22;20457;-77
2021/09/14 11:37:32;;;;;;;4.40;4.00;;;;;;;;;;6380583;22;20378;-77
2021/09/14 11:40:01;;;;;;;6.93;4.57;;;;;;;;;;6368609;22;20376;-76
2021/09/14 11:42:30;;;;;;;4.80;4.40;;;;;;;;;;6378120;22;20398;-74
2021/09/14 11:45:03;;;;;;;5.60;4.73;;;;;;;;;;6379175;22;20925;-75
2021/09/14 11:47:29;;;;;;;4.70;4.33;;;;;;;;;;6379078;22;20394;-75
2021/09/14 11:49:55;;;;;;;4.30;3.90;;;;;;;;;;6368137;22;20431;-76
2021/09/14 11:52:22;;;;;;;6.53;4.40;;;;;;;;;;6368532;22;20919;-75
2021/09/14 11:54:48;;;;;;;5.03;4.60;;;;;;;;;;6368457;22;20371;-77
2021/09/14 11:57:18;;;;;;;6.90;4.10;;;;;;;;;;6368891;22;20371;-77
2021/09/14 11:59:44;;;;;;;5.17;4.77;;;;;;;;;;6366414;22;20372;-78
2021/09/14 12:02:11;;;;;;;4.23;3.83;;;;;;;;;;6367126;22;20404;-77
2021/09/14 12:04:37;;;;;;;6.40;4.20;;;;;;;;;;6367796;22;20367;-77
2021/09/14 12:07:03;;;;;;;4.00;3.70;;;;;;;;;;6377751;22;20645;-77
2021/09/14 12:09:29;;;;;;;5.40;3.63;;;;;;;;;;6377525;22;20370;-75
2021/09/14 12:11:59;;;;;;;4.87;4.37;;;;;;;;;;6377320;22;20382;-81
2021/09/14 12:17:29;;;;;;;4.80;4.40;;;;;;;;;;6377447;22;20358;-76
2021/09/14 12:19:55;;;;;;;4.90;4.40;;;;;;;;;;6366738;22;20391;-77
2021/09/14 12:22:21;;;;;;;5.17;4.77;;;;;;;;;;6377887;22;20370;-76
2021/09/14 12:24:47;;;;;;;4.60;4.20;;;;;;;;;;6378062;22;20356;-76
2021/09/14 12:27:13;;;;;;;4.63;4.23;;;;;;;;;;6377551;22;20491;-77
2021/09/14 12:32:42;;;;;;;5.30;4.50;;;;;;;;;;6377671;22;20369;-77
2021/09/14 12:35:08;;;;;;;4.37;4.03;;;;;;;;;;6377736;22;20391;-77
2021/09/14 12:37:35;;;;;;;4.80;4.40;;;;;;;;;;6335864;22;20424;-78
2021/09/14 12:40:00;;;;;;;4.47;3.90;;;;;;;;;;6377729;22;20821;-78
2021/09/14 12:42:26;;;;;;;4.23;3.77;;;;;;;;;;6377711;22;20359;-77
2021/09/14 12:47:56;;;;;;;3.90;3.50;;;;;;;;;;6377795;22;20849;-77
2021/09/14 12:50:22;;;;;;;4.53;4.10;;;;;;;;;;6377804;22;20423;-78
2021/09/14 12:52:51;;;;;;;5.77;4.20;;;;;;;;;;6377439;22;20382;-75
2021/09/14 12:55:17;;;;;;;4.57;4.17;;;;;;;;;;6377229;22;20363;-77
2021/09/14 12:57:43;;;;;;;4.60;4.20;;;;;;;;;;6377088;22;20438;-76
2021/09/14 13:03:14;;;;;;;4.20;3.80;;;;;;;;;;6379300;22;20396;-77
2021/09/14 13:05:42;;;;;;;4.73;4.33;;;;;;;;;;6379130;22;20366;-76
2021/09/14 13:08:11;;;;;;;4.07;3.77;;;;;;;;;;6379245;22;20389;-78
2021/09/14 13:10:37;;;;;;;5.20;4.80;;;;;;;;;;6379020;22;20415;-75
2021/09/14 13:18:34;;;;;;;4.00;3.70;;;;;;;;;;6378663;22;20520;-76
2021/09/14 13:21:03;;;;;;;3.93;3.50;;;;;;;;;;6378990;22;20691;-77
2021/09/14 13:23:30;;;;;;;3.73;3.53;;;;;;;;;;6378993;22;20387;-77
2021/09/14 13:25:56;;;;;;;4.90;4.30;;;;;;;;;;6378575;22;20486;-77
2021/09/14 13:28:22;;;;;;;5.00;3.70;;;;;;;;;;6378914;22;20822;-78
2021/09/14 13:30:48;;;;;;;5.97;4.27;;;;;;;;;;6368145;22;20430;-77
2021/09/14 13:33:14;;;;;;;5.10;4.60;;;;;;;;;;6378888;22;20786;-77
2021/09/14 13:35:40;;;;;;;5.63;5.13;;;;;;;;;;6378848;22;20360;-75
2021/09/14 13:38:06;;;;;;;5.63;4.90;;;;;;;;;;6378753;22;20681;-74
2021/09/14 13:40:33;;;;;;;6.03;5.53;;;;;;;;;;6378373;22;20382;-76
2021/09/14 13:43:00;;;;;;;6.20;5.53;;;;;;;;;;6378774;22;20373;-77
2021/09/14 13:48:30;;;;;;;11.33;6.43;;;;;;;;;;6378507;22;20390;-75
2021/09/14 13:50:56;;;;;;;6.67;5.97;;;;;;;;;;6368361;22;20435;-76
2021/09/14 13:53:22;;;;;;;6.70;6.10;;;;;;;;;;6378608;22;20359;-76
2021/09/14 13:55:49;;;;;;;5.50;5.10;;;;;;;;;;6338756;22;20464;-76
2021/09/14 13:58:15;;;;;;;6.93;6.23;;;;;;;;;;6367453;22;20385;-74
2021/09/14 14:03:44;;;;;;;5.33;4.93;;;;;;;;;;6378435;22;20428;-76
2021/09/14 14:06:11;;;;;;;6.13;5.53;;;;;;;;;;6368694;22;20743;-74
2021/09/14 14:08:37;;;;;;;6.27;5.57;;;;;;;;;;6378753;22;20367;-75
2021/09/14 14:11:03;;;;;;;6.20;5.63;;;;;;;;;;6367301;22;20966;-74
2021/09/14 14:13:30;;;;;;;6.97;6.27;;;;;;;;;;6378705;22;20689;-76
2021/09/14 14:18:59;;;;;;;6.03;5.53;;;;;;;;;;6379786;22;20392;-76
2021/09/14 14:21:25;;;;;;;7.00;5.73;;;;;;;;;;6379616;22;20364;-75
2021/09/14 14:23:51;;;;;;;12.37;6.47;;;;;;;;;;6379527;22;20451;-76
2021/09/14 14:26:17;;;;;;;6.70;6.20;;;;;;;;;;6379286;22;20415;-74
2021/09/14 14:28:43;;;;;;;6.17;5.63;;;;;;;;;;6379194;22;20356;-74
2021/09/14 14:34:13;;;;;;;5.47;4.97;;;;;;;;;;6379305;22;20427;-75
2021/09/14 14:36:39;;;;;;;8.60;5.23;;;;;;;;;;6379061;22;20767;-77
2021/09/14 14:39:05;;;;;;;5.40;4.90;;;;;;;;;;6379390;22;20394;-77
2021/09/14 14:41:31;;;;;;;7.03;6.53;;;;;;;;;;6379258;22;20501;-76
2021/09/14 14:43:56;;;;;;;6.50;6.00;;;;;;;;;;6378898;22;20367;-76
2021/09/14 14:46:24;;;;;;;6.13;5.73;;;;;;;;;;6378606;22;20802;-75
2021/09/14 14:48:50;;;;;;;10.13;5.93;;;;;;;;;;6368782;22;20382;-76
2021/09/14 14:51:16;;;;;;;6.73;6.03;;;;;;;;;;6378721;22;20513;-75
2021/09/14 14:53:42;;;;;;;5.90;5.50;;;;;;;;;;6368691;22;20375;-77
2021/09/14 14:56:08;;;;;;;8.27;6.23;;;;;;;;;;6378868;22;20378;-75
2021/09/14 14:58:34;;;;;;;6.30;5.70;;;;;;;;;;6378700;22;20400;-75
2021/09/14 15:04:03;;;;;;;7.00;5.97;;;;;;;;;;6378868;22;20369;-75
2021/09/14 15:06:29;;;;;;;10.40;6.77;;;;;;;;;;6378669;22;20411;-75
2021/09/14 15:08:55;;;;;;;5.87;5.30;;;;;;;;;;6368101;22;20763;-77
2021/09/14 15:11:21;;;;;;;8.10;6.97;;;;;;;;;;6378454;22;20418;-74
2021/09/14 15:13:47;;;;;;;7.37;6.60;;;;;;;;;;6368343;22;20474;-75
2021/09/14 15:19:17;;;;;;;7.77;7.07;;;;;;;;;;6376898;22;20961;-76
2021/09/14 15:21:43;;;;;;;7.70;7.00;;;;;;;;;;6369009;22;20375;-76
2021/09/14 15:24:09;;;;;;;8.13;6.27;;;;;;;;;;6368663;22;20415;-77
2021/09/14 15:26:35;;;;;;;7.53;6.83;;;;;;;;;;6379330;22;20568;-76
2021/09/14 15:29:04;;;;;;;7.00;6.30;;;;;;;;;;6340179;22;20455;-77
2021/09/14 15:34:34;;;;;;;8.43;7.10;;;;;;;;;;6378792;22;20374;-74
2021/09/14 15:37:00;;;;;;;8.83;6.80;;;;;;;;;;6367609;22;20466;-78
2021/09/14 15:39:26;;;;;;;8.37;7.57;;;;;;;;;;6368875;22;20732;-74
2021/09/14 15:41:55;;;;;;;8.17;7.50;;;;;;;;;;6369055;22;20367;-77
2021/09/14 15:44:21;;;;;;;8.80;7.90;;;;;;;;;;6378938;22;20427;-76
2021/09/14 15:49:52;;;;;;;10.80;7.37;;;;;;;;;;6379002;22;20413;-74
2021/09/14 15:52:18;;;;;;;8.33;7.63;;;;;;;;;;6379124;22;20378;-77
2021/09/14 15:54:44;;;;;;;7.73;6.77;;;;;;;;;;6379260;22;20371;-75
2021/09/14 15:57:13;;;;;;;8.47;7.77;;;;;;;;;;6379099;22;20456;-77
2021/09/14 15:59:39;;;;;;;9.50;8.10;;;;;;;;;;6368797;22;20380;-71
2021/09/14 16:05:09;;;;;;;8.10;7.30;;;;;;;;;;6379183;22;20377;-74
2021/09/14 16:07:35;;;;;;;7.47;6.87;;;;;;;;;;6379056;22;20364;-74
2021/09/14 16:10:01;;;;;;;7.90;7.10;;;;;;;;;;6379000;22;20426;-74
2021/09/14 16:12:27;;;;;;;7.97;7.17;;;;;;;;;;6379122;22;20778;-73
2021/09/14 16:14:53;;;;;;;8.10;7.40;;;;;;;;;;6368641;22;20395;-72
2021/09/14 16:20:22;;;;;;;8.20;7.50;;;;;;;;;;6379014;22;20460;-81
2021/09/14 16:22:48;;;;;;;8.07;7.37;;;;;;;;;;6379312;22;20423;-76
2021/09/14 16:25:15;;;;;;;9.03;7.97;;;;;;;;;;6378866;22;20727;-75
2021/09/14 16:27:41;;;;;;;7.80;7.00;;;;;;;;;;6379384;22;20435;-77
2021/09/14 16:36:14;;;;;;;8.70;7.90;;;;;;;;;;6380792;22;20459;-81
2021/09/14 16:38:40;;;;;;;9.73;8.83;;;;;;;;;;6381119;22;20367;-82
2021/09/14 16:41:06;;;;;;;10.27;9.20;;;;;;;;;;6381054;22;20679;-81
2021/09/14 16:43:34;;;;;;;9.47;8.70;;;;;;;;;;6381184;22;20367;-81
2021/09/14 16:46:04;;;;;;;10.30;9.03;;;;;;;;;;6370871;22;20765;-80
2021/09/14 16:48:30;;;;;;;8.23;7.53;;;;;;;;;;6380998;22;20398;-83
2021/09/14 16:50:56;;;;;;;8.17;7.50;;;;;;;;;;6380703;22;20422;-81
2021/09/14 16:53:22;;;;;;;8.67;8.00;;;;;;;;;;6381053;22;20360;-82
2021/09/14 16:55:48;;;;;;;9.20;8.50;;;;;;;;;;6370493;22;20405;-76
2021/09/14 16:58:14;;;;;;;10.03;8.30;;;;;;;;;;6380938;22;20446;-79
2021/09/14 17:00:41;;;;;;;9.33;8.23;;;;;;;;;;6380776;22;20450;-76
2021/09/14 17:03:07;;;;;;;8.80;8.00;;;;;;;;;;6380785;22;20359;-78
2021/09/14 17:05:33;;;;;;;8.00;6.93;;;;;;;;;;6342339;22;20722;-79
2021/09/14 17:07:59;;;;;;;9.03;6.70;;;;;;;;;;6371457;22;20364;-81
2021/09/14 17:10:25;;;;;;;9.30;7.50;;;;;;;;;;6388151;22;20514;-79
2021/09/14 17:12:51;;;;;;;8.87;8.07;;;;;;;;;;6349278;22;20466;-76
2021/09/14 17:15:17;;;;;;;9.30;7.93;;;;;;;;;;6373805;22;20387;-78
2021/09/14 17:20:47;;;;;;;8.77;8.00;;;;;;;;;;6381218;22;20370;-78
2021/09/14 17:23:13;;;;;;;8.97;8.07;;;;;;;;;;6370827;22;20367;-73
2021/09/14 17:25:39;;;;;;;8.30;7.50;;;;;;;;;;6370420;22;20375;-79
2021/09/14 17:28:05;;;;;;;9.00;7.60;;;;;;;;;;6381151;22;20375;-79
2021/09/14 17:30:31;;;;;;;9.80;8.80;;;;;;;;;;6370907;22;20427;-78
2021/09/14 17:36:01;;;;;;;9.40;8.60;;;;;;;;;;6380827;22;20449;-76
2021/09/14 17:38:27;;;;;;;9.40;8.40;;;;;;;;;;6380506;22;20375;-78
2021/09/14 17:40:53;;;;;;;9.47;8.47;;;;;;;;;;6380863;22;20428;-79
2021/09/14 17:43:19;;;;;;;9.03;8.20;;;;;;;;;;6380795;22;20372;-79
2021/09/14 17:45:49;;;;;;;9.03;8.23;;;;;;;;;;6380545;22;20367;-75
2021/09/14 17:51:18;;;;;;;9.73;8.73;;;;;;;;;;6380085;22;20461;-74
2021/09/14 17:53:44;;;;;;;10.43;9.20;;;;;;;;;;6380249;22;20368;-74
2021/09/14 17:56:10;;;;;;;9.63;8.73;;;;;;;;;;6380451;22;20382;-77
2021/09/14 17:58:37;;;;;;;9.27;8.40;;;;;;;;;;6380250;22;20372;-75
2021/09/14 18:01:03;;;;;;;9.80;8.80;;;;;;;;;;6380385;22;20647;-75
2021/09/14 18:06:32;;;;;;;9.70;8.80;;;;;;;;;;6381658;22;20699;-74
2021/09/14 18:08:58;;;;;;;9.43;8.73;;;;;;;;;;6381967;22;20374;-74
2021/09/14 18:11:24;;;;;;;9.30;8.60;;;;;;;;;;6381383;22;20751;-75
2021/09/14 18:13:51;;;;;;;12.90;9.53;;;;;;;;;;6381694;22;20802;-72
2021/09/14 18:16:18;;;;;;;10.83;9.80;;;;;;;;;;6381367;22;20375;-77
2021/09/14 18:18:44;;;;;;;10.70;9.60;;;;;;;;;;6370730;22;20367;-77
2021/09/14 18:21:10;;;;;;;9.80;9.00;;;;;;;;;;6379970;22;20688;-76
2021/09/14 18:23:36;;;;;;;11.40;10.20;;;;;;;;;;6379145;22;20363;-76